Time;durP1;ratioP1;P1;durP2;ratioP2;P2;SDS_P1;SDS_P2;PMS_P1;PMS_P2;Temp;Humidity;BMP_temperature;BMP_pressure;BME280_temperature;BME280_humidity;BME280_pressure;Samples;Min_cycle;Max_cycle;Signal;HPM_P1;HPM_P2
2022/12/02 00:01:19;;;;;;;115.13;42.42;;;1.90;67.80;;;;;;5022493;28;20040;-71
2022/12/02 00:03:45;;;;;;;91.03;36.63;;;2.00;67.70;;;;;;5030775;28;20022;-71
2022/12/02 00:06:25;;;;;;;70.10;33.28;;;2.00;67.70;;;;;;5036597;28;20048;-70
2022/12/02 00:08:53;;;;;;;58.92;29.50;;;2.00;68.00;;;;;;5014808;28;20038;-71
2022/12/02 00:11:30;;;;;;;41.22;24.00;;;2.00;67.50;;;;;;5029349;28;20325;-71
2022/12/02 00:13:59;;;;;;;59.55;28.50;;;2.00;67.50;;;;;;5020040;28;20109;-71
2022/12/02 00:16:25;;;;;;;40.30;22.85;;;2.00;67.70;;;;;;5017621;28;20025;-71
2022/12/02 00:18:52;;;;;;;36.35;21.98;;;2.00;67.30;;;;;;5027571;28;20047;-71
2022/12/02 00:21:19;;;;;;;38.40;22.70;;;2.00;67.50;;;;;;5011819;28;20033;-71
2022/12/02 00:23:45;;;;;;;36.28;22.65;;;2.00;68.20;;;;;;5032554;28;20689;-71
2022/12/02 00:26:11;;;;;;;39.28;22.70;;;2.00;68.50;;;;;;5042403;28;20034;-71
2022/12/02 00:28:37;;;;;;;37.88;22.17;;;2.00;68.60;;;;;;5028490;28;20318;-71
2022/12/02 00:31:02;;;;;;;38.38;22.58;;;2.00;68.20;;;;;;5029293;28;20029;-71
2022/12/02 00:33:28;;;;;;;41.47;23.73;;;2.00;68.40;;;;;;5030247;28;20033;-71
2022/12/02 00:35:54;;;;;;;38.40;21.70;;;2.00;69.90;;;;;;5029751;28;20034;-70
2022/12/02 00:38:19;;;;;;;65.35;28.17;;;1.90;69.80;;;;;;5025565;28;20033;-71
2022/12/02 00:40:45;;;;;;;58.72;27.42;;;1.90;69.60;;;;;;5038326;28;20030;-71
2022/12/02 00:48:40;;;;;;;53.35;26.55;;;2.00;69.40;;;;;;5018505;28;20029;-70
2022/12/02 00:51:06;;;;;;;76.38;31.33;;;2.10;68.90;;;;;;5030531;28;20025;-70
2022/12/02 00:53:31;;;;;;;39.45;23.48;;;2.10;69.10;;;;;;5037326;28;20036;-70
2022/12/02 00:55:57;;;;;;;68.47;30.15;;;2.00;70.50;;;;;;5042045;28;20453;-70
2022/12/02 00:58:23;;;;;;;67.78;28.50;;;2.00;70.10;;;;;;5056554;28;20025;-70
2022/12/02 01:00:48;;;;;;;60.05;28.25;;;2.00;70.40;;;;;;5024508;28;20025;-70
2022/12/02 01:03:14;;;;;;;46.63;27.00;;;2.00;69.90;;;;;;5037259;28;20028;-70
2022/12/02 01:05:40;;;;;;;59.50;29.67;;;2.00;70.40;;;;;;5028294;28;20026;-70
2022/12/02 01:08:06;;;;;;;61.55;28.73;;;2.00;70.20;;;;;;5033958;28;20037;-70
2022/12/02 01:10:32;;;;;;;46.53;27.00;;;2.00;69.90;;;;;;5036204;28;20021;-70
2022/12/02 01:12:57;;;;;;;70.53;33.40;;;2.00;69.90;;;;;;5037787;28;20037;-70
2022/12/02 01:15:23;;;;;;;104.32;38.45;;;2.00;70.00;;;;;;5029010;28;20429;-70
2022/12/02 01:17:48;;;;;;;427.63;45.55;;;2.10;69.70;;;;;;5017904;28;20080;-70
2022/12/02 01:20:14;;;;;;;369.05;46.17;;;2.00;69.80;;;;;;5018489;28;20022;-70
2022/12/02 01:22:39;;;;;;;188.88;40.42;;;2.00;69.70;;;;;;5017725;28;20128;-70
2022/12/02 01:25:06;;;;;;;118.85;34.38;;;2.00;69.10;;;;;;5021866;28;20430;-70
2022/12/02 01:27:31;;;;;;;124.88;39.30;;;2.00;68.40;;;;;;5036837;28;20444;-70
2022/12/02 01:29:59;;;;;;;154.48;42.55;;;2.00;68.40;;;;;;5030565;28;20084;-70
2022/12/02 01:32:25;;;;;;;62.17;32.33;;;2.00;68.60;;;;;;5037343;28;20037;-69
2022/12/02 01:34:51;;;;;;;100.30;36.80;;;2.00;67.70;;;;;;5034979;28;20089;-70
2022/12/02 01:37:17;;;;;;;153.25;43.28;;;2.00;68.00;;;;;;5021084;28;20112;-71
2022/12/02 01:39:42;;;;;;;66.22;33.30;;;2.00;67.80;;;;;;5022719;28;20029;-70
2022/12/02 01:42:08;;;;;;;146.57;42.63;;;1.90;67.90;;;;;;5001792;28;20033;-71
2022/12/02 01:44:35;;;;;;;158.30;43.63;;;2.00;67.50;;;;;;5025033;28;20093;-70
2022/12/02 01:47:01;;;;;;;109.50;37.28;;;2.00;67.50;;;;;;5016762;28;20028;-70
2022/12/02 01:49:27;;;;;;;106.57;38.25;;;2.00;67.50;;;;;;5024156;28;20022;-70
2022/12/02 01:51:52;;;;;;;120.65;40.13;;;1.90;67.50;;;;;;5035537;28;20040;-70
2022/12/02 01:54:18;;;;;;;138.55;44.45;;;1.90;67.30;;;;;;5030796;28;20061;-70
2022/12/02 01:56:44;;;;;;;99.75;37.63;;;1.90;67.20;;;;;;5021231;28;20109;-70
2022/12/02 01:59:12;;;;;;;119.35;39.58;;;1.90;67.00;;;;;;5020668;28;20013;-70
2022/12/02 02:01:38;;;;;;;116.13;38.92;;;1.90;66.80;;;;;;5031095;28;20087;-70
2022/12/02 02:04:04;;;;;;;123.45;40.55;;;2.00;66.70;;;;;;5052402;28;20017;-70
2022/12/02 02:06:40;;;;;;;97.90;38.88;;;1.90;67.00;;;;;;5022110;28;20034;-70
2022/12/02 02:09:08;;;;;;;147.93;44.30;;;1.90;66.60;;;;;;5016272;28;20088;-70
2022/12/02 02:11:38;;;;;;;107.82;38.90;;;1.90;66.80;;;;;;5017648;28;20058;-70
2022/12/02 02:14:05;;;;;;;65.90;33.25;;;1.90;66.40;;;;;;4998126;28;20025;-70
2022/12/02 02:16:31;;;;;;;61.10;32.33;;;2.00;66.00;;;;;;5026849;28;20079;-70
2022/12/02 02:18:57;;;;;;;77.30;32.08;;;2.00;66.30;;;;;;5029988;28;20061;-70
2022/12/02 02:21:30;;;;;;;82.72;36.80;;;2.10;66.10;;;;;;5025781;28;20032;-71
2022/12/02 02:23:55;;;;;;;67.63;33.05;;;2.00;66.60;;;;;;5017685;28;20079;-70
2022/12/02 02:26:21;;;;;;;93.63;37.08;;;2.00;66.40;;;;;;5022229;28;20402;-71
2022/12/02 02:28:47;;;;;;;164.05;41.80;;;2.00;66.60;;;;;;5023744;28;20112;-70
2022/12/02 02:31:13;;;;;;;108.15;37.67;;;2.00;66.50;;;;;;5023080;28;20502;-70
2022/12/02 02:33:39;;;;;;;134.43;39.17;;;2.00;66.80;;;;;;5015718;28;20070;-70
2022/12/02 02:36:05;;;;;;;120.78;36.58;;;2.00;66.30;;;;;;5022180;28;20124;-70
2022/12/02 02:38:31;;;;;;;129.45;40.25;;;2.00;66.10;;;;;;5032450;28;20033;-71
2022/12/02 02:40:57;;;;;;;70.80;33.47;;;2.00;66.40;;;;;;5040729;28;20041;-70
2022/12/02 02:43:25;;;;;;;85.78;37.03;;;2.10;65.90;;;;;;5019049;28;20033;-71
2022/12/02 02:45:53;;;;;;;77.60;35.80;;;2.10;66.40;;;;;;5030112;28;20117;-71
2022/12/02 02:48:19;;;;;;;71.45;34.08;;;2.10;66.30;;;;;;5048447;28;20383;-70
2022/12/02 02:50:46;;;;;;;51.92;27.80;;;2.10;66.00;;;;;;5032977;28;20029;-70
2022/12/02 02:53:14;;;;;;;71.68;29.80;;;2.10;66.10;;;;;;5033773;28;20368;-70
2022/12/02 02:55:40;;;;;;;89.97;33.38;;;2.20;65.80;;;;;;5030025;28;20172;-70
2022/12/02 02:58:25;;;;;;;89.50;32.45;;;2.20;66.60;;;;;;5027548;28;20432;-70
2022/12/02 03:01:01;;;;;;;111.20;36.78;;;2.10;66.80;;;;;;5021036;28;20126;-70
2022/12/02 03:03:35;;;;;;;160.18;40.85;;;2.10;66.90;;;;;;4999232;28;20029;-70
2022/12/02 03:06:03;;;;;;;67.80;31.27;;;2.10;66.60;;;;;;5024053;28;20053;-70
2022/12/02 03:08:30;;;;;;;107.05;36.58;;;2.10;66.50;;;;;;5018993;28;20366;-70
2022/12/02 03:11:00;;;;;;;98.15;35.88;;;2.00;66.40;;;;;;5016274;28;20029;-70
2022/12/02 03:13:28;;;;;;;202.55;41.60;;;2.00;66.50;;;;;;5027307;28;20030;-71
2022/12/02 03:15:54;;;;;;;66.25;32.55;;;2.00;66.80;;;;;;5039470;28;20033;-71
2022/12/02 03:18:20;;;;;;;45.95;25.80;;;2.00;66.30;;;;;;5029498;28;20030;-70
2022/12/02 03:20:46;;;;;;;51.38;28.42;;;2.00;65.80;;;;;;5031413;28;20048;-71
2022/12/02 03:23:12;;;;;;;55.50;27.73;;;2.10;65.90;;;;;;5032154;28;20446;-71
2022/12/02 03:25:38;;;;;;;70.78;31.35;;;2.10;66.10;;;;;;5009752;28;20026;-71
2022/12/02 03:28:04;;;;;;;49.83;27.20;;;2.10;67.00;;;;;;5000677;28;20105;-71
2022/12/02 03:30:30;;;;;;;42.58;24.95;;;2.10;66.30;;;;;;5006507;28;20022;-70
2022/12/02 03:32:57;;;;;;;47.22;24.92;;;2.10;66.50;;;;;;5014784;28;20038;-71
2022/12/02 03:35:23;;;;;;;51.58;26.85;;;2.10;67.10;;;;;;4998988;28;20369;-71
2022/12/02 03:37:48;;;;;;;39.17;23.83;;;2.00;67.30;;;;;;5008713;28;20037;-71
2022/12/02 03:40:15;;;;;;;58.15;29.08;;;2.00;67.20;;;;;;5012763;28;20091;-71
2022/12/02 03:42:40;;;;;;;46.00;25.85;;;2.00;67.70;;;;;;5014542;28;20059;-71
2022/12/02 03:45:07;;;;;;;49.22;26.63;;;2.00;67.60;;;;;;5009090;28;20058;-71
2022/12/02 03:47:33;;;;;;;42.92;24.98;;;2.00;67.80;;;;;;5021223;28;20080;-70
2022/12/02 03:49:58;;;;;;;52.47;26.80;;;2.00;67.40;;;;;;5010842;28;20287;-70
2022/12/02 03:52:24;;;;;;;62.20;29.38;;;2.00;68.20;;;;;;4997580;28;20041;-71
2022/12/02 03:54:50;;;;;;;52.50;26.63;;;2.00;68.20;;;;;;4996204;28;20030;-71
2022/12/02 03:57:16;;;;;;;155.88;37.90;;;2.00;67.80;;;;;;5004926;28;20026;-70
2022/12/02 03:59:41;;;;;;;53.42;27.10;;;1.90;68.20;;;;;;5010771;28;20335;-71
2022/12/02 04:02:07;;;;;;;144.80;32.00;;;1.90;67.70;;;;;;4999925;28;20029;-70
2022/12/02 04:04:33;;;;;;;155.80;35.65;;;2.00;67.20;;;;;;5013839;28;20026;-71
2022/12/02 04:06:58;;;;;;;555.95;47.95;;;2.00;67.50;;;;;;5014661;28;20034;-70
2022/12/02 04:09:24;;;;;;;262.30;32.53;;;2.00;67.20;;;;;;5015352;28;20429;-70
2022/12/02 04:11:49;;;;;;;352.02;35.83;;;2.00;67.20;;;;;;5013075;28;20109;-70
2022/12/02 04:14:15;;;;;;;517.88;44.92;;;2.00;67.40;;;;;;5013215;28;20421;-71
2022/12/02 04:16:40;;;;;;;77.25;25.27;;;1.90;67.40;;;;;;5012679;28;20034;-71
2022/12/02 04:19:06;;;;;;;49.53;22.92;;;1.90;66.60;;;;;;5015109;28;20185;-71
2022/12/02 04:21:32;;;;;;;39.78;20.50;;;1.90;66.90;;;;;;5006274;28;20030;-70
2022/12/02 04:23:58;;;;;;;34.60;19.45;;;1.90;66.70;;;;;;5009858;28;21615;-71
2022/12/02 04:26:23;;;;;;;43.90;21.42;;;1.90;66.50;;;;;;5033252;28;20029;-71
2022/12/02 04:28:49;;;;;;;57.65;23.98;;;1.80;68.00;;;;;;5013380;28;20369;-70
2022/12/02 04:31:14;;;;;;;31.15;18.30;;;1.70;67.50;;;;;;5026136;28;20032;-72
2022/12/02 04:33:40;;;;;;;43.67;20.25;;;1.70;67.00;;;;;;5026185;28;20037;-72
2022/12/02 04:36:06;;;;;;;30.10;17.15;;;1.70;66.60;;;;;;5026240;28;20033;-71
2022/12/02 04:38:31;;;;;;;29.70;17.35;;;1.70;67.00;;;;;;5046760;28;20044;-71
2022/12/02 04:40:57;;;;;;;44.20;19.50;;;1.70;67.50;;;;;;5030891;28;20037;-71
2022/12/02 04:43:22;;;;;;;21.73;13.65;;;1.60;67.80;;;;;;5030211;28;20045;-71
2022/12/02 04:45:48;;;;;;;29.33;15.27;;;1.60;67.90;;;;;;5037492;28;20038;-71
2022/12/02 04:48:13;;;;;;;28.40;15.15;;;1.50;67.70;;;;;;5033450;28;20032;-71
2022/12/02 04:50:39;;;;;;;28.92;15.73;;;1.50;68.40;;;;;;5030037;28;20342;-72
2022/12/02 04:53:04;;;;;;;25.42;14.50;;;1.40;68.50;;;;;;5027972;28;20025;-70
2022/12/02 04:55:30;;;;;;;28.15;15.32;;;1.40;68.40;;;;;;5022287;28;20030;-71
2022/12/02 04:57:56;;;;;;;32.50;16.85;;;1.40;68.20;;;;;;5020650;28;20037;-71
2022/12/02 05:00:21;;;;;;;41.47;18.63;;;1.50;67.50;;;;;;5021994;28;20025;-71
2022/12/02 05:02:47;;;;;;;37.88;18.10;;;1.50;68.00;;;;;;5023134;28;20112;-71
2022/12/02 05:05:12;;;;;;;23.13;14.40;;;1.50;67.90;;;;;;5038502;28;20094;-71
2022/12/02 05:07:38;;;;;;;32.47;15.98;;;1.50;67.80;;;;;;5032747;28;20069;-71
2022/12/02 05:10:04;;;;;;;34.65;16.27;;;1.50;67.40;;;;;;5030804;28;20022;-71
2022/12/02 05:12:30;;;;;;;43.40;18.67;;;1.50;67.90;;;;;;5033753;28;20029;-72
2022/12/02 05:14:55;;;;;;;37.72;17.40;;;1.50;68.20;;;;;;5032526;28;20458;-72
2022/12/02 05:17:21;;;;;;;32.22;16.38;;;1.50;67.70;;;;;;5023306;28;20135;-71
2022/12/02 05:19:46;;;;;;;29.95;15.10;;;1.50;67.30;;;;;;5015531;28;20030;-71
2022/12/02 05:22:12;;;;;;;24.52;13.65;;;1.60;67.00;;;;;;5023008;28;20056;-71
2022/12/02 05:24:39;;;;;;;19.92;12.27;;;1.70;67.00;;;;;;5044157;28;20032;-71
2022/12/02 05:27:04;;;;;;;20.73;11.73;;;1.70;66.80;;;;;;5027039;28;20099;-71
2022/12/02 05:29:30;;;;;;;16.98;11.05;;;1.70;68.00;;;;;;5023409;28;20060;-71
2022/12/02 05:31:55;;;;;;;42.45;18.58;;;1.60;67.90;;;;;;5022080;28;20038;-71
2022/12/02 05:34:21;;;;;;;41.75;20.10;;;1.60;68.40;;;;;;5029403;28;20037;-70
2022/12/02 05:36:47;;;;;;;43.00;19.90;;;1.60;68.40;;;;;;5026888;28;20356;-71
2022/12/02 05:39:12;;;;;;;37.78;20.10;;;1.50;68.50;;;;;;5025306;28;20468;-71
2022/12/02 05:41:38;;;;;;;42.90;19.98;;;1.50;68.40;;;;;;5028247;28;20103;-70
2022/12/02 05:44:23;;;;;;;39.50;18.98;;;1.50;67.80;;;;;;5025403;28;20033;-71
2022/12/02 05:46:49;;;;;;;33.17;18.15;;;1.50;67.80;;;;;;5052825;28;20482;-71
2022/12/02 05:49:21;;;;;;;35.75;19.50;;;1.50;67.60;;;;;;5026501;28;20025;-71
2022/12/02 05:51:59;;;;;;;29.42;17.70;;;1.50;67.70;;;;;;5027919;28;20382;-72
2022/12/02 05:54:27;;;;;;;48.47;21.70;;;1.50;68.00;;;;;;5045026;28;20091;-70
2022/12/02 05:56:54;;;;;;;55.83;23.25;;;1.60;67.60;;;;;;5034763;28;20075;-72
2022/12/02 05:59:21;;;;;;;58.80;24.92;;;1.60;67.40;;;;;;5028082;28;20029;-71
2022/12/02 06:01:55;;;;;;;58.10;23.77;;;1.60;67.60;;;;;;5035809;28;20087;-70
2022/12/02 06:04:29;;;;;;;34.15;20.50;;;1.60;67.40;;;;;;5031730;28;20025;-70
2022/12/02 06:06:58;;;;;;;35.20;20.58;;;1.70;66.70;;;;;;5036864;28;20030;-70
2022/12/02 06:09:29;;;;;;;45.35;22.70;;;1.70;66.70;;;;;;5014841;28;20385;-71
2022/12/02 06:11:55;;;;;;;31.77;17.63;;;1.80;67.10;;;;;;5034650;28;20199;-71
2022/12/02 06:14:24;;;;;;;26.15;15.38;;;1.80;67.40;;;;;;5032351;28;20025;-71
2022/12/02 06:17:14;;;;;;;34.05;17.40;;;1.80;67.50;;;;;;5017902;28;20330;-72
2022/12/02 06:20:01;;;;;;;36.53;18.05;;;1.60;69.30;;;;;;5036680;28;20073;-72
2022/12/02 06:22:29;;;;;;;21.83;12.82;;;1.50;70.80;;;;;;5027707;28;20046;-72
2022/12/02 06:24:58;;;;;;;19.90;11.73;;;1.30;69.90;;;;;;5027772;28;20326;-72
2022/12/02 06:27:25;;;;;;;21.70;12.85;;;1.30;69.50;;;;;;5023898;28;20026;-72
2022/12/02 06:29:58;;;;;;;26.77;14.18;;;1.30;69.40;;;;;;5015793;28;20109;-72
2022/12/02 06:32:38;;;;;;;20.65;13.02;;;1.20;71.20;;;;;;5024616;28;20017;-72
2022/12/02 06:35:21;;;;;;;28.83;15.50;;;1.20;69.20;;;;;;5023162;28;20082;-71
2022/12/02 06:37:48;;;;;;;22.90;13.45;;;1.20;70.60;;;;;;5009206;28;20034;-71
2022/12/02 06:40:47;;;;;;;25.48;14.27;;;1.10;71.30;;;;;;5016428;28;20030;-71
2022/12/02 06:43:19;;;;;;;25.60;14.52;;;1.20;70.20;;;;;;4996989;28;20531;-71
2022/12/02 06:45:48;;;;;;;23.45;13.23;;;1.10;71.80;;;;;;5036293;28;20029;-71
2022/12/02 06:48:27;;;;;;;43.08;19.17;;;1.20;70.10;;;;;;5032266;28;20028;-72
2022/12/02 06:50:55;;;;;;;28.50;15.50;;;1.20;70.70;;;;;;5019294;28;20057;-71
2022/12/02 06:53:36;;;;;;;26.33;15.48;;;1.20;70.20;;;;;;5033665;28;20040;-71
2022/12/02 06:56:17;;;;;;;29.30;15.40;;;1.20;70.30;;;;;;5022697;28;20041;-71
2022/12/02 06:59:02;;;;;;;30.73;17.33;;;1.20;70.50;;;;;;5028522;28;20029;-70
2022/12/02 07:01:37;;;;;;;38.63;19.35;;;1.30;70.40;;;;;;5025617;28;20053;-71
2022/12/02 07:04:08;;;;;;;29.42;15.80;;;1.30;69.60;;;;;;5035954;28;20036;-71
2022/12/02 07:06:48;;;;;;;30.55;16.27;;;1.30;69.50;;;;;;5018527;28;20026;-71
2022/12/02 07:09:51;;;;;;;28.48;16.42;;;1.40;69.20;;;;;;5013846;28;20026;-71
2022/12/02 07:12:33;;;;;;;21.38;13.52;;;1.40;68.70;;;;;;5028335;28;20046;-71
2022/12/02 07:15:26;;;;;;;19.80;12.38;;;1.50;67.70;;;;;;5034535;28;20029;-70
2022/12/02 07:17:55;;;;;;;20.00;12.13;;;1.60;68.70;;;;;;5032173;28;20040;-70
2022/12/02 07:20:30;;;;;;;24.30;13.80;;;1.60;68.20;;;;;;5026711;28;20111;-70
2022/12/02 07:22:59;;;;;;;22.48;13.10;;;1.70;68.80;;;;;;5036409;28;20041;-70
2022/12/02 07:25:35;;;;;;;25.30;15.90;;;1.70;68.80;;;;;;5018160;28;20043;-71
2022/12/02 07:28:14;;;;;;;27.50;16.15;;;1.80;68.70;;;;;;5028848;28;20030;-71
2022/12/02 07:30:40;;;;;;;25.58;16.45;;;1.80;69.60;;;;;;5033941;28;20493;-70
2022/12/02 07:33:06;;;;;;;43.80;23.33;;;1.80;69.40;;;;;;5015232;28;20033;-71
2022/12/02 07:35:33;;;;;;;47.75;27.33;;;1.80;71.50;;;;;;5028168;28;20325;-71
2022/12/02 07:37:58;;;;;;;32.97;18.75;;;1.70;71.30;;;;;;5022776;28;20034;-71
2022/12/02 07:40:24;;;;;;;34.50;19.05;;;1.70;70.80;;;;;;5018356;28;20030;-71
2022/12/02 07:42:50;;;;;;;37.97;21.05;;;1.70;70.50;;;;;;5024451;28;20025;-71
2022/12/02 07:45:18;;;;;;;38.55;21.40;;;1.80;69.00;;;;;;5019034;28;20018;-70
2022/12/02 07:47:44;;;;;;;36.13;20.98;;;1.90;69.30;;;;;;5030167;28;20053;-71
2022/12/02 07:50:12;;;;;;;44.33;23.77;;;2.00;69.50;;;;;;5015158;28;20060;-70
2022/12/02 07:52:37;;;;;;;35.20;19.88;;;2.00;69.50;;;;;;5034499;28;20361;-70
2022/12/02 07:55:04;;;;;;;43.38;21.75;;;2.00;70.30;;;;;;5042514;28;20030;-70
2022/12/02 07:57:29;;;;;;;49.03;23.02;;;2.00;71.60;;;;;;5015733;28;20037;-71
2022/12/02 07:59:55;;;;;;;36.20;20.10;;;2.00;71.80;;;;;;5018929;28;20025;-71
2022/12/02 08:02:21;;;;;;;45.22;24.20;;;2.00;71.50;;;;;;5016746;28;20029;-71
2022/12/02 08:04:46;;;;;;;63.40;34.72;;;2.00;71.00;;;;;;5029664;28;20423;-71
2022/12/02 08:07:12;;;;;;;47.78;26.80;;;2.00;71.10;;;;;;5028884;28;20029;-71
2022/12/02 08:09:37;;;;;;;38.75;20.65;;;2.00;71.30;;;;;;5026999;28;20323;-71
2022/12/02 08:12:03;;;;;;;33.15;18.55;;;2.00;70.30;;;;;;5019058;28;20034;-70
2022/12/02 08:14:29;;;;;;;41.20;22.10;;;2.00;70.70;;;;;;5054906;28;20120;-70
2022/12/02 08:16:55;;;;;;;33.70;19.52;;;2.00;70.70;;;;;;5054533;28;20245;-71
2022/12/02 08:19:20;;;;;;;34.55;19.33;;;2.00;70.20;;;;;;5033111;28;20033;-71
2022/12/02 08:21:46;;;;;;;50.20;23.80;;;2.10;70.20;;;;;;5026882;28;20042;-70
2022/12/02 08:24:12;;;;;;;36.83;21.20;;;2.10;70.60;;;;;;5038168;28;20096;-70
2022/12/02 08:26:37;;;;;;;37.90;20.55;;;2.10;69.90;;;;;;5035915;28;20033;-71
2022/12/02 08:29:03;;;;;;;40.22;22.42;;;2.10;70.30;;;;;;5039656;28;20080;-71
2022/12/02 08:31:28;;;;;;;45.53;22.77;;;2.10;70.00;;;;;;5027127;28;20089;-70
2022/12/02 08:33:54;;;;;;;46.53;23.88;;;2.10;70.00;;;;;;5041781;28;20057;-70
2022/12/02 08:36:20;;;;;;;52.50;27.17;;;2.10;70.30;;;;;;5024105;28;20315;-71
2022/12/02 08:38:47;;;;;;;50.30;26.63;;;2.10;70.20;;;;;;5037981;28;20037;-71
2022/12/02 08:41:13;;;;;;;48.42;27.92;;;2.10;69.80;;;;;;5032633;28;20017;-70
2022/12/02 08:43:39;;;;;;;50.78;29.30;;;2.10;69.60;;;;;;5035917;28;20030;-70
2022/12/02 08:46:06;;;;;;;57.95;30.85;;;2.20;69.70;;;;;;5043442;28;20029;-70
2022/12/02 08:48:31;;;;;;;54.72;29.77;;;2.20;69.60;;;;;;5018649;28;20046;-70
2022/12/02 08:50:57;;;;;;;41.67;26.23;;;2.30;69.10;;;;;;5031052;28;20025;-70
2022/12/02 08:53:23;;;;;;;50.85;29.40;;;2.40;68.80;;;;;;5031457;28;20049;-70
2022/12/02 08:55:49;;;;;;;52.88;29.67;;;2.50;68.80;;;;;;5031807;28;20041;-70
2022/12/02 08:58:17;;;;;;;61.20;32.75;;;2.60;69.60;;;;;;5038277;28;20029;-70
2022/12/02 09:00:42;;;;;;;45.70;27.83;;;2.60;69.80;;;;;;5036690;28;20037;-70
2022/12/02 09:03:09;;;;;;;46.05;26.98;;;2.70;69.80;;;;;;5040000;28;20026;-70
2022/12/02 09:05:36;;;;;;;60.92;33.35;;;2.70;70.70;;;;;;5039230;28;20024;-70
2022/12/02 09:08:03;;;;;;;51.33;30.25;;;2.80;71.50;;;;;;5032261;28;20025;-70
2022/12/02 09:10:29;;;;;;;68.97;31.85;;;2.80;71.20;;;;;;5032642;28;20339;-70
2022/12/02 09:12:54;;;;;;;47.90;26.60;;;2.80;74.10;;;;;;5006569;28;20026;-70
2022/12/02 09:15:21;;;;;;;56.15;29.13;;;2.80;73.20;;;;;;5035618;28;20033;-70
2022/12/02 09:17:47;;;;;;;48.10;26.10;;;2.80;74.20;;;;;;5041863;28;20448;-70
2022/12/02 09:20:13;;;;;;;48.58;27.23;;;2.80;75.10;;;;;;5037052;28;20060;-70
2022/12/02 09:22:39;;;;;;;49.22;26.02;;;2.90;75.80;;;;;;5018717;28;20088;-70
2022/12/02 09:25:05;;;;;;;45.33;26.40;;;2.90;76.80;;;;;;5024616;28;20094;-70
2022/12/02 09:27:31;;;;;;;44.33;24.52;;;3.00;77.00;;;;;;5016329;28;20084;-70
2022/12/02 09:29:57;;;;;;;43.15;23.30;;;3.10;78.00;;;;;;5025512;28;20034;-70
2022/12/02 09:32:23;;;;;;;37.08;21.35;;;3.20;78.80;;;;;;5024259;28;20326;-70
2022/12/02 09:34:48;;;;;;;37.22;21.58;;;3.30;82.20;;;;;;5017014;28;20062;-70
2022/12/02 09:37:14;;;;;;;42.33;24.58;;;3.30;84.00;;;;;;5039958;28;20432;-70
2022/12/02 09:39:40;;;;;;;39.60;23.02;;;3.40;85.90;;;;;;5030915;28;20038;-70
2022/12/02 09:42:07;;;;;;;38.63;22.50;;;3.40;87.80;;;;;;5034526;28;20040;-70
2022/12/02 09:44:33;;;;;;;47.45;23.95;;;3.30;88.20;;;;;;5037332;28;20037;-70
2022/12/02 09:46:58;;;;;;;34.25;21.38;;;3.40;88.40;;;;;;5036216;28;20022;-70
2022/12/02 09:49:24;;;;;;;37.05;21.73;;;3.40;88.80;;;;;;5029769;28;20096;-70
2022/12/02 09:51:52;;;;;;;41.53;22.88;;;3.40;88.50;;;;;;5017914;28;20419;-70
2022/12/02 09:54:20;;;;;;;37.28;22.38;;;3.50;89.60;;;;;;5030432;28;20303;-70
2022/12/02 09:56:46;;;;;;;35.47;21.77;;;3.50;91.70;;;;;;5036411;28;20037;-69
2022/12/02 09:59:15;;;;;;;40.72;22.85;;;3.50;91.30;;;;;;5033119;28;20179;-70
2022/12/02 10:01:44;;;;;;;43.80;25.55;;;3.60;92.70;;;;;;5025442;28;20120;-70
2022/12/02 10:04:13;;;;;;;52.13;30.45;;;3.70;92.70;;;;;;5036508;28;20113;-70
2022/12/02 10:06:40;;;;;;;51.67;31.10;;;3.70;94.00;;;;;;5023794;28;20025;-70
2022/12/02 10:09:06;;;;;;;45.25;26.42;;;3.70;93.60;;;;;;5035087;28;20033;-70
2022/12/02 10:11:32;;;;;;;57.03;32.95;;;3.80;92.60;;;;;;5039624;28;20330;-69
2022/12/02 10:13:58;;;;;;;60.40;32.60;;;3.70;94.10;;;;;;5034133;28;20025;-69
2022/12/02 10:16:27;;;;;;;54.55;30.15;;;3.70;92.50;;;;;;5031899;28;20121;-69
2022/12/02 10:19:01;;;;;;;50.67;27.05;;;3.70;91.10;;;;;;5039917;28;20434;-68
2022/12/02 10:21:27;;;;;;;47.10;27.23;;;3.70;90.80;;;;;;5044490;28;20057;-69
2022/12/02 10:24:08;;;;;;;57.78;30.52;;;3.80;90.80;;;;;;5017972;28;20058;-71
2022/12/02 10:26:51;;;;;;;56.83;30.80;;;3.80;91.60;;;;;;5025589;28;20017;-70
2022/12/02 10:29:31;;;;;;;56.63;30.23;;;3.60;90.00;;;;;;5036228;28;20029;-70
2022/12/02 10:32:01;;;;;;;60.08;33.05;;;3.70;90.10;;;;;;5028957;28;20481;-70
2022/12/02 10:34:28;;;;;;;54.72;30.73;;;3.60;91.50;;;;;;5017824;28;20126;-70
2022/12/02 10:36:57;;;;;;;53.17;29.85;;;3.50;90.80;;;;;;5017182;28;20121;-70
2022/12/02 10:39:29;;;;;;;57.50;31.50;;;3.40;92.10;;;;;;5028160;28;20065;-70
2022/12/02 10:42:06;;;;;;;74.38;41.47;;;3.40;89.60;;;;;;5036420;28;20029;-69
2022/12/02 10:44:36;;;;;;;62.50;33.53;;;3.40;88.60;;;;;;5013961;28;20014;-70
2022/12/02 10:47:19;;;;;;;58.55;31.05;;;3.40;87.90;;;;;;5016328;28;20065;-69
2022/12/02 10:49:52;;;;;;;49.20;26.92;;;3.40;86.50;;;;;;5013332;28;20026;-69
2022/12/02 10:52:22;;;;;;;47.25;26.88;;;3.50;88.00;;;;;;5035726;28;20367;-70
2022/12/02 10:54:50;;;;;;;45.95;25.23;;;3.50;89.70;;;;;;5021462;28;20034;-69
2022/12/02 10:57:41;;;;;;;46.13;25.63;;;3.40;89.90;;;;;;5016239;28;20037;-69
2022/12/02 11:00:16;;;;;;;46.55;25.95;;;3.50;89.00;;;;;;5032005;28;20052;-69
2022/12/02 11:02:48;;;;;;;47.92;25.83;;;3.60;90.20;;;;;;5018456;28;20025;-69
2022/12/02 11:05:18;;;;;;;56.92;29.80;;;3.60;90.20;;;;;;5021747;28;20028;-69
2022/12/02 11:08:04;;;;;;;47.65;26.48;;;3.60;91.60;;;;;;5034114;28;20099;-69
2022/12/02 11:10:39;;;;;;;50.47;27.63;;;3.60;90.90;;;;;;5015952;28;20068;-69
2022/12/02 11:13:11;;;;;;;44.80;25.52;;;3.60;91.80;;;;;;5015642;28;20022;-69
2022/12/02 11:15:49;;;;;;;52.55;29.73;;;3.60;92.00;;;;;;5037809;28;20033;-69
2022/12/02 11:18:29;;;;;;;57.17;28.92;;;3.50;92.10;;;;;;5033143;28;20083;-69
2022/12/02 11:21:14;;;;;;;63.88;34.20;;;3.40;91.00;;;;;;5016002;28;20033;-69
2022/12/02 11:23:40;;;;;;;58.67;31.73;;;3.40;90.20;;;;;;5023482;28;20202;-69
2022/12/02 11:26:07;;;;;;;45.95;26.10;;;3.40;88.60;;;;;;5037157;28;20013;-69
2022/12/02 11:28:47;;;;;;;52.30;27.30;;;3.40;87.70;;;;;;5037131;28;20022;-69
2022/12/02 11:31:18;;;;;;;42.50;23.73;;;3.50;88.70;;;;;;5021186;28;20418;-69
2022/12/02 11:33:47;;;;;;;50.10;27.98;;;3.60;89.70;;;;;;5035766;28;20418;-69
2022/12/02 11:36:22;;;;;;;45.72;24.80;;;3.60;91.60;;;;;;5034031;28;20112;-69
2022/12/02 11:38:47;;;;;;;45.60;25.80;;;3.60;91.30;;;;;;5025139;28;20026;-69
2022/12/02 11:41:14;;;;;;;46.80;26.52;;;3.50;92.00;;;;;;4998404;28;20425;-69
2022/12/02 11:43:47;;;;;;;46.60;26.75;;;3.60;92.00;;;;;;5019080;28;20034;-69
2022/12/02 11:46:20;;;;;;;65.17;39.17;;;3.50;92.40;;;;;;5019940;28;20026;-69
2022/12/02 11:48:52;;;;;;;65.63;38.83;;;3.50;92.80;;;;;;5020521;28;20107;-69
2022/12/02 11:51:27;;;;;;;53.45;30.27;;;3.50;91.00;;;;;;5036261;28;20418;-69
2022/12/02 11:53:53;;;;;;;55.53;28.65;;;3.50;89.90;;;;;;5018046;28;20038;-69
2022/12/02 11:56:19;;;;;;;50.08;27.30;;;3.40;91.60;;;;;;5019852;28;20034;-68
2022/12/02 11:58:44;;;;;;;47.17;27.60;;;3.40;91.30;;;;;;5019045;28;20088;-70
2022/12/02 12:01:21;;;;;;;56.95;28.75;;;3.40;90.60;;;;;;5019495;28;20076;-69
2022/12/02 12:03:48;;;;;;;55.53;28.77;;;3.40;91.80;;;;;;5023497;28;20026;-68
2022/12/02 12:06:17;;;;;;;50.58;27.85;;;3.30;91.50;;;;;;5019347;28;20022;-68
2022/12/02 12:08:54;;;;;;;56.17;30.13;;;3.30;89.70;;;;;;5019761;28;20037;-68
2022/12/02 12:11:31;;;;;;;54.25;30.38;;;3.30;90.10;;;;;;5034950;28;20036;-69
2022/12/02 12:14:19;;;;;;;55.70;30.23;;;3.20;89.30;;;;;;5018582;28;20029;-69
2022/12/02 12:16:47;;;;;;;50.47;28.00;;;3.20;88.70;;;;;;5001675;28;20088;-69
2022/12/02 12:19:12;;;;;;;40.97;24.90;;;3.20;87.70;;;;;;5027562;28;20113;-68
2022/12/02 12:21:47;;;;;;;39.22;22.88;;;3.30;87.40;;;;;;5017167;28;20113;-68
2022/12/02 12:24:25;;;;;;;52.85;29.38;;;3.30;88.20;;;;;;5002254;28;20022;-69
2022/12/02 12:26:59;;;;;;;58.58;30.70;;;3.30;90.30;;;;;;5019135;28;20088;-69
2022/12/02 12:29:29;;;;;;;52.28;28.33;;;3.10;89.10;;;;;;5018808;28;20029;-69
2022/12/02 12:31:54;;;;;;;62.33;31.52;;;3.00;87.30;;;;;;5019020;28;20088;-68
2022/12/02 12:34:20;;;;;;;66.53;32.63;;;3.00;86.20;;;;;;5002127;28;20030;-68
2022/12/02 12:36:46;;;;;;;63.03;32.22;;;2.90;85.30;;;;;;5019167;28;20508;-69
2022/12/02 12:39:13;;;;;;;59.95;31.65;;;2.90;85.00;;;;;;5030418;28;20041;-68
2022/12/02 12:41:38;;;;;;;63.55;31.85;;;2.80;84.00;;;;;;5038524;28;20326;-68
2022/12/02 12:44:05;;;;;;;55.90;29.63;;;2.80;83.90;;;;;;5027268;28;20018;-69
2022/12/02 12:46:30;;;;;;;54.30;29.38;;;2.70;82.80;;;;;;5018934;28;20018;-68
2022/12/02 12:48:57;;;;;;;68.00;31.52;;;2.70;82.50;;;;;;5019093;28;20026;-68